createdAt,value
2023-04-11T00:00:56.158Z,87.20
2023-04-11T00:03:23.581Z,87.10
2023-04-11T00:05:51.149Z,87.30
2023-04-11T00:08:18.466Z,86.50
2023-04-11T00:10:45.993Z,86.50
2023-04-11T00:13:13.316Z,86.30
2023-04-11T00:15:40.618Z,86.10
2023-04-11T00:18:08.018Z,86.10
2023-04-11T00:20:35.415Z,85.20
2023-04-11T00:23:02.791Z,85.00
2023-04-11T00:25:30.414Z,85.20
2023-04-11T00:27:57.810Z,84.90
2023-04-11T00:30:25.177Z,84.60
2023-04-11T00:32:52.571Z,84.20
2023-04-11T00:35:20.084Z,84.20
2023-04-11T00:37:49.414Z,84.30
2023-04-11T00:40:18.741Z,84.50
2023-04-11T00:42:46.120Z,84.40
2023-04-11T00:45:13.448Z,84.40
2023-04-11T00:47:41.242Z,84.30
2023-04-11T00:50:09.174Z,84.40
2023-04-11T00:52:36.535Z,84.30
2023-04-11T00:55:04.359Z,84.50
2023-04-11T00:57:32.305Z,84.20
2023-04-11T00:59:59.776Z,84.60
2023-04-11T01:02:27.141Z,84.90
2023-04-11T01:04:54.821Z,85.20
2023-04-11T01:07:22.418Z,84.90
2023-04-11T01:09:49.888Z,85.20
2023-04-11T01:12:17.267Z,85.20
2023-04-11T01:14:47.778Z,85.60
2023-04-11T01:17:15.793Z,85.30
2023-04-11T01:19:43.445Z,85.00
2023-04-11T01:22:11.199Z,85.20
2023-04-11T01:24:38.549Z,85.10
2023-04-11T01:27:07.306Z,85.20
2023-04-11T01:29:34.821Z,85.30
2023-04-11T01:32:02.254Z,85.60
2023-04-11T01:34:29.747Z,85.80
2023-04-11T01:36:57.356Z,85.70
2023-04-11T01:39:24.720Z,86.00
2023-04-11T01:41:52.062Z,86.90
2023-04-11T01:44:20.674Z,87.50
2023-04-11T01:46:48.040Z,87.50
2023-04-11T01:49:16.473Z,88.00
2023-04-11T01:51:43.810Z,88.90
2023-04-11T01:54:11.156Z,90.00
2023-04-11T01:56:38.709Z,90.10
2023-04-11T01:59:06.794Z,90.80
2023-04-11T02:01:34.874Z,90.40
2023-04-11T02:04:02.783Z,90.70
2023-04-11T02:06:30.366Z,90.40
2023-04-11T02:08:57.831Z,90.10
2023-04-11T02:11:25.752Z,88.90
2023-04-11T02:13:53.120Z,86.20
2023-04-11T02:16:20.865Z,84.50
2023-04-11T02:18:48.386Z,84.50
2023-04-11T02:21:15.862Z,83.60
2023-04-11T02:23:43.127Z,83.70
2023-04-11T02:26:10.615Z,83.70
2023-04-11T02:28:37.944Z,83.00
2023-04-11T02:31:05.903Z,82.40
2023-04-11T02:33:33.341Z,80.80
2023-04-11T02:36:00.645Z,80.70
2023-04-11T02:38:28.182Z,80.20
2023-04-11T02:40:55.663Z,79.40
2023-04-11T02:43:22.994Z,78.00
2023-04-11T02:45:52.403Z,76.30
2023-04-11T02:48:22.233Z,75.80
2023-04-11T02:50:49.595Z,75.90
2023-04-11T02:53:17.806Z,75.00
2023-04-11T02:55:49.041Z,74.70
2023-04-11T02:58:20.116Z,74.40
2023-04-11T03:00:49.707Z,74.50
2023-04-11T03:03:17.467Z,74.70
2023-04-11T03:05:47.283Z,74.30
2023-04-11T03:08:18.041Z,74.40
2023-04-11T03:10:51.057Z,73.30
2023-04-11T03:13:19.117Z,74.20
2023-04-11T03:15:46.534Z,73.80
2023-04-11T03:18:14.743Z,73.70
2023-04-11T03:20:44.958Z,73.60
2023-04-11T03:23:14.354Z,73.10
2023-04-11T03:25:44.529Z,73.40
2023-04-11T03:28:12.805Z,73.70
2023-04-11T03:30:42.453Z,73.10
2023-04-11T03:33:12.408Z,72.70
2023-04-11T03:35:40.563Z,72.60
2023-04-11T03:38:07.882Z,72.40
2023-04-11T03:40:35.304Z,72.60
2023-04-11T03:43:20.823Z,72.10
2023-04-11T03:45:48.296Z,71.60
2023-04-11T03:48:30.988Z,70.80
2023-04-11T03:51:02.996Z,71.00
2023-04-11T03:53:38.968Z,72.30
2023-04-11T03:56:20.960Z,74.20
2023-04-11T03:58:48.800Z,73.30
2023-04-11T04:01:17.298Z,72.60
2023-04-11T04:03:45.790Z,73.80
2023-04-11T04:06:14.543Z,74.00
2023-04-11T04:08:41.898Z,73.20
2023-04-11T04:11:09.372Z,72.90
2023-04-11T04:13:38.297Z,70.90
2023-04-11T04:16:17.833Z,71.50
2023-04-11T04:18:50.845Z,70.40
2023-04-11T04:21:19.425Z,70.30
2023-04-11T04:23:49.706Z,70.40
2023-04-11T04:26:50.018Z,70.50
2023-04-11T04:29:46.040Z,70.20
2023-04-11T04:32:24.907Z,70.30
2023-04-11T04:34:58.734Z,70.10
2023-04-11T04:37:29.993Z,69.90
2023-04-11T04:40:12.177Z,69.70
2023-04-11T04:42:58.253Z,69.20
2023-04-11T04:45:36.057Z,69.90
2023-04-11T04:48:03.756Z,72.40
2023-04-11T04:50:31.187Z,76.80
2023-04-11T04:52:58.753Z,77.80
2023-04-11T04:55:28.803Z,80.50
2023-04-11T04:57:56.237Z,78.90
2023-04-11T05:00:23.950Z,79.10
2023-04-11T05:02:55.274Z,79.30
2023-04-11T05:05:25.976Z,79.10
2023-04-11T05:07:53.993Z,79.30
2023-04-11T05:10:21.414Z,80.80
2023-04-11T05:12:49.409Z,80.10
2023-04-11T05:15:16.876Z,81.20
2023-04-11T05:17:45.294Z,81.20
2023-04-11T05:20:15.438Z,82.90
2023-04-11T05:22:46.000Z,83.90
2023-04-11T05:25:13.588Z,88.70
2023-04-11T05:27:43.038Z,90.00
2023-04-11T05:30:11.032Z,91.20
2023-04-11T05:32:42.868Z,91.50
2023-04-11T05:35:10.672Z,91.40
2023-04-11T05:37:50.904Z,92.10
2023-04-11T05:40:18.492Z,91.60
2023-04-11T05:42:46.016Z,91.80
2023-04-11T05:45:13.369Z,91.80
2023-04-11T05:47:40.719Z,91.50
2023-04-11T05:50:08.569Z,92.00
2023-04-11T05:52:36.597Z,92.00
2023-04-11T05:55:04.646Z,92.10
2023-04-11T05:57:32.068Z,92.10
2023-04-11T06:00:01.975Z,92.90
2023-04-11T06:02:42.036Z,93.40
2023-04-11T06:05:11.944Z,94.50
2023-04-11T06:07:39.771Z,95.00
2023-04-11T06:10:08.103Z,95.90
2023-04-11T06:12:35.499Z,96.00
2023-04-11T06:15:03.063Z,96.40
2023-04-11T06:17:30.512Z,96.80
2023-04-11T06:19:58.231Z,97.20
2023-04-11T06:22:25.645Z,97.60
2023-04-11T06:24:53.054Z,97.80
2023-04-11T06:27:20.340Z,98.30
2023-04-11T06:29:47.605Z,98.60
2023-04-11T06:32:15.156Z,98.70
2023-04-11T06:34:42.434Z,99.00
2023-04-11T06:37:09.819Z,99.20
2023-04-11T06:39:37.216Z,99.40
2023-04-11T06:42:04.659Z,99.70
2023-04-11T06:44:33.770Z,99.90
2023-04-11T06:47:01.227Z,99.90
2023-04-11T06:49:28.648Z,99.90
2023-04-11T06:51:56.058Z,99.90
2023-04-11T06:54:23.772Z,99.90
2023-04-11T06:56:51.733Z,99.90
2023-04-11T06:59:22.386Z,99.90
2023-04-11T07:01:50.696Z,99.90
2023-04-11T07:04:18.141Z,99.90
2023-04-11T07:06:46.126Z,99.90
2023-04-11T07:09:13.528Z,99.90
2023-04-11T07:11:40.943Z,99.90
2023-04-11T07:14:08.234Z,99.90
2023-04-11T07:16:35.679Z,99.90
2023-04-11T07:19:03.541Z,99.90
2023-04-11T07:21:32.490Z,99.90
2023-04-11T07:24:00.697Z,99.90
2023-04-11T07:26:32.500Z,99.90
2023-04-11T07:29:00.161Z,99.90
2023-04-11T07:31:27.989Z,99.90
2023-04-11T07:33:55.662Z,99.90
2023-04-11T07:36:23.322Z,99.90
2023-04-11T07:38:52.336Z,99.90
2023-04-11T07:41:19.671Z,99.90
2023-04-11T07:43:47.098Z,99.90
2023-04-11T07:46:15.137Z,99.90
2023-04-11T07:48:43.157Z,99.90
2023-04-11T07:51:10.465Z,99.90
2023-04-11T07:53:37.768Z,99.90
2023-04-11T07:56:05.393Z,99.90
2023-04-11T07:58:32.686Z,99.90
2023-04-11T08:01:00.087Z,99.90
2023-04-11T08:03:28.210Z,99.90
2023-04-11T08:05:56.137Z,99.90
2023-04-11T08:08:23.542Z,99.90
2023-04-11T08:10:52.134Z,99.90
2023-04-11T08:13:19.712Z,99.90
2023-04-11T08:15:47.060Z,99.90
2023-04-11T08:18:16.471Z,99.90
2023-04-11T08:20:43.939Z,99.90
2023-04-11T08:23:11.394Z,99.90
2023-04-11T08:25:39.154Z,99.90
2023-04-11T08:28:06.658Z,99.90
2023-04-11T08:30:34.432Z,99.90
2023-04-11T08:33:02.042Z,99.90
2023-04-11T08:35:29.690Z,99.90
2023-04-11T08:37:57.099Z,99.90
2023-04-11T08:40:26.885Z,99.90
2023-04-11T08:43:00.961Z,99.90
2023-04-11T08:45:28.270Z,99.90
2023-04-11T08:47:56.469Z,99.90
2023-04-11T08:50:24.223Z,99.90
2023-04-11T08:52:51.612Z,99.90
2023-04-11T08:55:20.350Z,99.90
2023-04-11T08:57:47.702Z,99.90
2023-04-11T09:00:18.767Z,99.90
2023-04-11T09:03:03.184Z,99.90
2023-04-11T09:05:34.252Z,99.90
2023-04-11T09:08:04.525Z,99.90
2023-04-11T09:10:31.965Z,99.90
2023-04-11T09:12:59.483Z,99.90
2023-04-11T09:15:28.381Z,99.90
2023-04-11T09:17:58.903Z,99.90
2023-04-11T09:20:30.413Z,99.90
2023-04-11T09:22:59.080Z,99.90
2023-04-11T09:25:26.634Z,99.90
2023-04-11T09:28:10.480Z,99.90
2023-04-11T09:30:37.918Z,99.90
2023-04-11T09:33:22.591Z,99.90
2023-04-11T09:35:54.536Z,99.90
2023-04-11T09:38:28.849Z,99.90
2023-04-11T09:40:56.626Z,99.90
2023-04-11T09:43:23.975Z,99.90
2023-04-11T09:46:08.654Z,99.90
2023-04-11T09:48:46.191Z,99.90
2023-04-11T09:51:24.275Z,99.90
2023-04-11T09:54:03.365Z,99.90
2023-04-11T09:56:31.093Z,99.90
2023-04-11T09:58:59.868Z,99.90
2023-04-11T10:01:27.523Z,99.90
2023-04-11T10:03:55.421Z,99.90
2023-04-11T10:06:51.963Z,99.90
2023-04-11T10:09:19.435Z,99.90
2023-04-11T10:11:46.788Z,99.90
2023-04-11T10:14:39.081Z,99.90
2023-04-11T10:17:22.903Z,99.90
2023-04-11T10:19:57.534Z,99.90
2023-04-11T10:22:44.079Z,99.90
2023-04-11T10:25:18.436Z,99.90
2023-04-11T10:27:49.536Z,99.90
2023-04-11T10:30:16.889Z,99.90
2023-04-11T10:33:09.594Z,99.90
2023-04-11T10:35:55.301Z,99.90
2023-04-11T10:38:49.610Z,99.90
2023-04-11T10:41:18.108Z,99.90
2023-04-11T10:43:46.120Z,99.90
2023-04-11T10:46:31.778Z,99.90
2023-04-11T10:49:03.189Z,99.90
2023-04-11T10:51:31.639Z,99.90
2023-04-11T10:54:02.544Z,99.90
2023-04-11T10:56:50.640Z,99.90
2023-04-11T10:59:34.319Z,99.80
2023-04-11T11:02:02.301Z,99.30
2023-04-11T11:04:36.664Z,99.90
2023-04-11T11:07:05.426Z,99.90
2023-04-11T11:09:33.099Z,99.90
2023-04-11T11:12:10.635Z,99.90
2023-04-11T11:14:39.438Z,99.90
2023-04-11T11:17:07.202Z,99.90
2023-04-11T11:19:35.728Z,99.90
2023-04-11T11:22:06.764Z,98.80
2023-04-11T11:24:34.194Z,98.30
2023-04-11T11:27:01.617Z,97.80
2023-04-11T11:29:34.117Z,98.00
2023-04-11T11:32:03.863Z,97.00
2023-04-11T11:34:32.502Z,97.10
2023-04-11T11:37:01.681Z,98.00
2023-04-11T11:39:29.613Z,97.60
2023-04-11T11:41:57.741Z,97.50
2023-04-11T11:44:29.011Z,96.80
2023-04-11T11:47:06.897Z,97.20
2023-04-11T11:49:51.115Z,96.70
2023-04-11T11:52:40.659Z,96.50
2023-04-11T11:55:12.458Z,96.70
2023-04-11T11:57:46.823Z,97.30
2023-04-11T12:00:14.936Z,97.00
2023-04-11T12:02:43.070Z,96.20
2023-04-11T12:05:11.420Z,96.40
2023-04-11T12:07:39.052Z,96.70
2023-04-11T12:10:08.729Z,96.10
2023-04-11T12:12:40.004Z,96.00
2023-04-11T12:15:21.146Z,95.60
2023-04-11T12:17:49.476Z,94.80
2023-04-11T12:20:16.923Z,94.30
2023-04-11T12:22:44.282Z,93.80
2023-04-11T12:25:13.296Z,94.60
2023-04-11T12:27:42.345Z,94.20
2023-04-11T12:30:10.560Z,92.80
2023-04-11T12:32:38.053Z,92.40
2023-04-11T12:35:06.016Z,90.90
2023-04-11T12:37:33.698Z,91.50
2023-04-11T12:40:01.405Z,91.20
2023-04-11T12:42:28.758Z,90.00
2023-04-11T12:44:56.434Z,89.60
2023-04-11T12:47:23.850Z,88.80
2023-04-11T12:49:51.406Z,89.50
2023-04-11T12:52:18.822Z,88.50
2023-04-11T12:54:46.217Z,85.20
2023-04-11T12:57:13.575Z,86.90
2023-04-11T12:59:40.901Z,87.40
2023-04-11T13:02:08.442Z,84.90
2023-04-11T13:04:36.357Z,85.80
2023-04-11T13:07:04.134Z,85.90
2023-04-11T13:09:31.657Z,84.30
2023-04-11T13:11:59.423Z,82.00
2023-04-11T13:14:26.860Z,82.40
2023-04-11T13:16:54.400Z,83.30
2023-04-11T13:19:22.463Z,85.70
2023-04-11T13:21:49.776Z,84.30
2023-04-11T13:24:17.184Z,86.20
2023-04-11T13:26:47.565Z,86.70
2023-04-11T13:29:14.906Z,84.00
2023-04-11T13:31:42.320Z,85.20
2023-04-11T13:34:10.062Z,83.70
2023-04-11T13:36:37.605Z,86.10
2023-04-11T13:39:06.129Z,84.20
2023-04-11T13:41:33.471Z,85.10
2023-04-11T13:44:00.751Z,84.00
2023-04-11T13:46:28.040Z,83.40
2023-04-11T13:48:55.582Z,83.50
2023-04-11T13:51:23.052Z,85.30
2023-04-11T13:53:50.411Z,86.80
2023-04-11T13:56:18.077Z,87.90
2023-04-11T13:58:45.467Z,86.80
2023-04-11T14:01:12.884Z,87.20
2023-04-11T14:03:42.936Z,83.50
2023-04-11T14:06:10.486Z,82.80
2023-04-11T14:08:37.849Z,84.10
2023-04-11T14:11:05.511Z,85.80
2023-04-11T14:13:33.008Z,86.20
2023-04-11T14:16:08.238Z,87.50
2023-04-11T14:18:36.496Z,88.60
2023-04-11T14:21:07.252Z,89.60
2023-04-11T14:23:34.614Z,90.10
2023-04-11T14:26:01.976Z,91.30
2023-04-11T14:28:29.333Z,92.20
2023-04-11T14:30:57.064Z,93.00
2023-04-11T14:33:24.370Z,93.40
2023-04-11T14:35:51.691Z,93.90
2023-04-11T14:38:19.072Z,94.40
2023-04-11T14:40:46.486Z,94.80
2023-04-11T14:43:13.893Z,95.20
2023-04-11T14:45:41.250Z,95.60
2023-04-11T14:48:08.736Z,96.00
2023-04-11T14:50:36.331Z,96.30
2023-04-11T14:53:03.763Z,96.30
2023-04-11T14:55:31.182Z,96.50
2023-04-11T14:57:58.471Z,96.70
2023-04-11T15:00:26.849Z,97.00
2023-04-11T15:02:55.536Z,97.10
2023-04-11T15:05:23.621Z,97.20
2023-04-11T15:07:52.038Z,97.30
2023-04-11T15:10:21.491Z,97.20
2023-04-11T15:12:48.919Z,97.20
2023-04-11T15:15:16.516Z,97.50
2023-04-11T15:17:47.516Z,98.00
2023-04-11T15:20:15.338Z,97.80
2023-04-11T15:22:44.203Z,97.70
2023-04-11T15:25:13.489Z,97.30
2023-04-11T15:27:41.002Z,97.60
2023-04-11T15:30:08.778Z,97.70
2023-04-11T15:32:36.239Z,97.60
2023-04-11T15:35:03.668Z,97.50
2023-04-11T15:37:31.087Z,97.00
2023-04-11T15:39:58.449Z,96.00
2023-04-11T15:42:25.807Z,95.40
2023-04-11T15:44:54.109Z,95.40
2023-04-11T15:47:22.152Z,95.70
2023-04-11T15:49:49.536Z,95.40
2023-04-11T15:52:17.369Z,95.90
2023-04-11T15:54:44.678Z,95.90
2023-04-11T15:57:11.942Z,95.80
2023-04-11T15:59:41.418Z,96.10
2023-04-11T16:02:12.026Z,96.10
2023-04-11T16:04:46.320Z,95.80
2023-04-11T16:07:18.578Z,95.90
2023-04-11T16:09:46.682Z,95.40
2023-04-11T16:12:14.328Z,95.10
2023-04-11T16:14:42.195Z,94.60
2023-04-11T16:17:09.521Z,94.60
2023-04-11T16:19:36.903Z,94.50
2023-04-11T16:22:04.762Z,94.20
2023-04-11T16:24:32.151Z,94.00
2023-04-11T16:26:59.560Z,93.80
2023-04-11T16:29:27.155Z,94.10
2023-04-11T16:31:55.207Z,94.20
2023-04-11T16:34:23.665Z,94.30
2023-04-11T16:36:51.331Z,94.80
2023-04-11T16:39:18.626Z,94.80
2023-04-11T16:41:45.979Z,95.70
2023-04-11T16:44:13.816Z,95.50
2023-04-11T16:46:41.733Z,95.20
2023-04-11T16:49:09.491Z,95.30
2023-04-11T16:51:37.161Z,95.00
2023-04-11T16:54:09.594Z,95.00
2023-04-11T16:56:37.477Z,94.80
2023-04-11T16:59:05.328Z,95.10
2023-04-11T17:01:32.693Z,95.60
2023-04-11T17:04:01.404Z,95.10
2023-04-11T17:06:29.138Z,94.80
2023-04-11T17:08:57.810Z,95.20
2023-04-11T17:11:25.800Z,95.40
2023-04-11T17:13:55.080Z,95.70
2023-04-11T17:16:22.877Z,95.90
2023-04-11T17:18:50.198Z,96.00
2023-04-11T17:21:17.696Z,96.20
2023-04-11T17:23:46.177Z,96.30
2023-04-11T17:26:13.928Z,96.50
2023-04-11T17:28:42.229Z,96.80
2023-04-11T17:31:13.465Z,96.90
2023-04-11T17:33:41.493Z,97.30
2023-04-11T17:36:09.628Z,97.30
2023-04-11T17:38:37.520Z,97.40
2023-04-11T17:41:13.428Z,97.50
2023-04-11T17:43:42.686Z,97.20
2023-04-11T17:46:10.367Z,97.20
2023-04-11T17:48:37.798Z,97.30
2023-04-11T17:51:05.835Z,97.20
2023-04-11T17:53:33.489Z,97.60
2023-04-11T17:56:05.901Z,97.70
2023-04-11T17:58:33.912Z,97.70
2023-04-11T18:01:03.769Z,97.60
2023-04-11T18:03:35.077Z,97.60
2023-04-11T18:06:03.205Z,97.70
2023-04-11T18:08:47.243Z,98.00
2023-04-11T18:11:17.846Z,98.00
2023-04-11T18:13:46.991Z,98.30
2023-04-11T18:16:16.066Z,98.20
2023-04-11T18:18:43.407Z,98.00
2023-04-11T18:21:10.938Z,98.00
2023-04-11T18:23:38.691Z,98.10
2023-04-11T18:26:06.003Z,97.60
2023-04-11T18:28:33.357Z,98.00
2023-04-11T18:31:01.612Z,97.90
2023-04-11T18:33:29.075Z,98.00
2023-04-11T18:35:56.620Z,97.90
2023-04-11T18:38:24.043Z,98.00
2023-04-11T18:40:55.408Z,98.10
2023-04-11T18:43:24.557Z,97.90
2023-04-11T18:45:51.989Z,98.00
2023-04-11T18:48:19.446Z,98.20
2023-04-11T18:50:48.647Z,98.30
2023-04-11T18:53:16.279Z,98.70
2023-04-11T18:55:43.660Z,98.20
2023-04-11T18:58:13.627Z,98.30
2023-04-11T19:00:43.536Z,98.50
2023-04-11T19:03:15.431Z,98.50
2023-04-11T19:05:44.025Z,98.60
2023-04-11T19:08:11.920Z,98.50
2023-04-11T19:10:39.295Z,98.40
2023-04-11T19:13:06.703Z,98.50
2023-04-11T19:15:34.319Z,98.50
2023-04-11T19:18:01.857Z,98.30
2023-04-11T19:20:29.625Z,98.40
2023-04-11T19:22:57.255Z,98.20
2023-04-11T19:25:24.979Z,98.10
2023-04-11T19:27:52.370Z,98.30
2023-04-11T19:30:19.782Z,98.30
2023-04-11T19:32:47.767Z,98.30
2023-04-11T19:35:15.245Z,98.50
2023-04-11T19:37:42.794Z,98.50
2023-04-11T19:40:11.176Z,98.70
2023-04-11T19:42:39.930Z,98.60
2023-04-11T19:45:09.225Z,98.50
2023-04-11T19:47:36.798Z,98.90
2023-04-11T19:50:04.653Z,98.50
2023-04-11T19:52:32.049Z,98.50
2023-04-11T19:54:59.365Z,98.40
2023-04-11T19:57:26.896Z,98.70
2023-04-11T19:59:54.321Z,98.90
2023-04-11T20:02:21.724Z,99.00
2023-04-11T20:04:49.581Z,99.20
2023-04-11T20:07:17.627Z,99.20
2023-04-11T20:09:44.970Z,99.00
2023-04-11T20:12:13.024Z,99.00
2023-04-11T20:14:40.363Z,99.10
2023-04-11T20:17:08.611Z,99.20
2023-04-11T20:19:37.688Z,98.90
2023-04-11T20:22:05.592Z,99.00
2023-04-11T20:24:33.251Z,99.10
2023-04-11T20:27:00.848Z,99.00
2023-04-11T20:29:32.476Z,98.80
2023-04-11T20:32:00.136Z,98.50
2023-04-11T20:34:27.453Z,98.70
2023-04-11T20:36:55.898Z,98.40
2023-04-11T20:39:23.268Z,98.50
2023-04-11T20:41:52.369Z,98.60
2023-04-11T20:44:23.601Z,98.30
2023-04-11T20:46:51.205Z,98.30
2023-04-11T20:49:18.466Z,98.60
2023-04-11T20:51:46.834Z,98.90
2023-04-11T20:54:14.186Z,98.90
2023-04-11T20:56:42.874Z,98.90
2023-04-11T20:59:12.338Z,99.00
2023-04-11T21:01:40.533Z,99.10
2023-04-11T21:04:09.944Z,99.10
2023-04-11T21:06:37.402Z,99.10
2023-04-11T21:09:05.652Z,99.10
2023-04-11T21:11:33.094Z,99.00
2023-04-11T21:14:00.493Z,99.00
2023-04-11T21:16:28.070Z,99.30
2023-04-11T21:18:55.660Z,99.20
2023-04-11T21:21:23.035Z,99.10
2023-04-11T21:23:50.418Z,99.20
2023-04-11T21:26:18.475Z,99.40
2023-04-11T21:28:45.789Z,99.10
2023-04-11T21:31:13.174Z,99.30
2023-04-11T21:33:40.623Z,99.30
2023-04-11T21:36:08.426Z,99.30
2023-04-11T21:38:35.778Z,99.40
2023-04-11T21:41:03.056Z,99.40
2023-04-11T21:43:30.427Z,99.40
2023-04-11T21:45:57.738Z,99.60
2023-04-11T21:48:25.049Z,99.70
2023-04-11T21:50:52.509Z,99.80
2023-04-11T21:53:19.846Z,99.90
2023-04-11T21:55:47.362Z,99.90
2023-04-11T21:58:26.289Z,99.90
2023-04-11T22:00:56.265Z,99.90
2023-04-11T22:03:24.177Z,99.90
2023-04-11T22:05:53.273Z,99.90
2023-04-11T22:08:22.394Z,99.90
2023-04-11T22:10:50.820Z,99.90
2023-04-11T22:13:19.070Z,99.90
2023-04-11T22:15:46.876Z,99.90
2023-04-11T22:18:14.292Z,99.90
2023-04-11T22:20:44.135Z,99.90
2023-04-11T22:23:12.825Z,99.90
2023-04-11T22:25:43.566Z,99.90
2023-04-11T22:28:13.354Z,99.90
2023-04-11T22:30:41.283Z,99.90
2023-04-11T22:33:09.116Z,99.90
2023-04-11T22:35:36.477Z,99.90
2023-04-11T22:38:03.877Z,99.90
2023-04-11T22:40:31.233Z,99.90
2023-04-11T22:42:58.523Z,99.90
2023-04-11T22:45:26.044Z,99.90
2023-04-11T22:48:00.113Z,99.90
2023-04-11T22:50:28.309Z,99.90
2023-04-11T22:52:55.605Z,99.90
2023-04-11T22:55:24.722Z,99.90
2023-04-11T22:57:52.121Z,99.90
2023-04-11T23:00:19.670Z,99.90
2023-04-11T23:02:47.189Z,99.90
2023-04-11T23:05:14.703Z,99.90
2023-04-11T23:07:42.353Z,99.90
2023-04-11T23:10:11.943Z,99.90
2023-04-11T23:12:39.498Z,99.90
2023-04-11T23:15:07.625Z,99.90
2023-04-11T23:17:35.271Z,99.90
2023-04-11T23:20:06.291Z,99.90
2023-04-11T23:22:33.684Z,99.90
2023-04-11T23:25:00.975Z,99.90
2023-04-11T23:27:28.739Z,99.90
2023-04-11T23:29:56.027Z,99.90
2023-04-11T23:32:23.429Z,99.90
2023-04-11T23:34:50.729Z,99.90
2023-04-11T23:37:19.400Z,99.90
2023-04-11T23:39:47.501Z,99.90
2023-04-11T23:42:14.910Z,99.90
2023-04-11T23:44:42.237Z,99.90
2023-04-11T23:47:09.575Z,99.90
2023-04-11T23:49:36.921Z,99.90
2023-04-11T23:52:04.187Z,99.90
2023-04-11T23:54:32.046Z,99.90
2023-04-11T23:56:59.356Z,99.90
2023-04-11T23:59:27.118Z,99.90
